sensor_id;sensor_type;location;lat;lon;timestamp;P1;durP1;ratioP1;P2;durP2;ratioP2
11498;SDS011;5806;48.748;9.278;2023-02-17T00:00:53;15.93;;;12.63;;
11498;SDS011;5806;48.748;9.278;2023-02-17T00:03:20;15.47;;;12.37;;
11498;SDS011;5806;48.748;9.278;2023-02-17T00:05:46;16.00;;;12.53;;
11498;SDS011;5806;48.748;9.278;2023-02-17T00:08:13;14.47;;;12.20;;
11498;SDS011;5806;48.748;9.278;2023-02-17T00:10:39;15.50;;;13.00;;
11498;SDS011;5806;48.748;9.278;2023-02-17T00:13:06;15.53;;;11.87;;
11498;SDS011;5806;48.748;9.278;2023-02-17T00:15:32;14.90;;;10.93;;
11498;SDS011;5806;48.748;9.278;2023-02-17T00:17:59;13.93;;;11.13;;
11498;SDS011;5806;48.748;9.278;2023-02-17T00:20:27;14.40;;;11.87;;
11498;SDS011;5806;48.748;9.278;2023-02-17T00:22:53;16.13;;;11.80;;
11498;SDS011;5806;48.748;9.278;2023-02-17T00:25:20;16.27;;;12.50;;
11498;SDS011;5806;48.748;9.278;2023-02-17T00:27:46;13.30;;;10.97;;
11498;SDS011;5806;48.748;9.278;2023-02-17T00:30:13;15.17;;;11.57;;
11498;SDS011;5806;48.748;9.278;2023-02-17T00:32:39;14.40;;;11.40;;
11498;SDS011;5806;48.748;9.278;2023-02-17T00:35:06;12.93;;;10.80;;
11498;SDS011;5806;48.748;9.278;2023-02-17T00:37:33;14.20;;;11.50;;
11498;SDS011;5806;48.748;9.278;2023-02-17T00:40:00;14.07;;;10.97;;
11498;SDS011;5806;48.748;9.278;2023-02-17T00:42:26;14.03;;;10.43;;
11498;SDS011;5806;48.748;9.278;2023-02-17T00:44:53;12.97;;;10.10;;
11498;SDS011;5806;48.748;9.278;2023-02-17T00:47:19;15.47;;;11.00;;
11498;SDS011;5806;48.748;9.278;2023-02-17T00:49:46;14.53;;;10.37;;
11498;SDS011;5806;48.748;9.278;2023-02-17T00:52:12;13.27;;;10.37;;
11498;SDS011;5806;48.748;9.278;2023-02-17T00:54:39;15.20;;;10.57;;
11498;SDS011;5806;48.748;9.278;2023-02-17T00:57:06;15.17;;;11.13;;
11498;SDS011;5806;48.748;9.278;2023-02-17T00:59:32;14.40;;;10.20;;
11498;SDS011;5806;48.748;9.278;2023-02-17T01:01:59;13.87;;;11.20;;
11498;SDS011;5806;48.748;9.278;2023-02-17T01:04:25;13.00;;;9.97;;
11498;SDS011;5806;48.748;9.278;2023-02-17T01:06:52;11.60;;;8.97;;
11498;SDS011;5806;48.748;9.278;2023-02-17T01:09:18;10.47;;;8.97;;
11498;SDS011;5806;48.748;9.278;2023-02-17T01:11:45;11.30;;;7.67;;
11498;SDS011;5806;48.748;9.278;2023-02-17T01:14:12;10.07;;;7.03;;
11498;SDS011;5806;48.748;9.278;2023-02-17T01:16:40;9.17;;;7.23;;
11498;SDS011;5806;48.748;9.278;2023-02-17T01:19:08;7.63;;;6.67;;
11498;SDS011;5806;48.748;9.278;2023-02-17T01:21:35;8.47;;;6.37;;
11498;SDS011;5806;48.748;9.278;2023-02-17T01:24:02;9.17;;;7.07;;
11498;SDS011;5806;48.748;9.278;2023-02-17T01:26:29;8.57;;;6.40;;
11498;SDS011;5806;48.748;9.278;2023-02-17T01:28:56;9.57;;;6.83;;
11498;SDS011;5806;48.748;9.278;2023-02-17T01:31:23;8.67;;;6.83;;
11498;SDS011;5806;48.748;9.278;2023-02-17T01:33:51;8.97;;;7.00;;
11498;SDS011;5806;48.748;9.278;2023-02-17T01:36:18;10.23;;;6.60;;
11498;SDS011;5806;48.748;9.278;2023-02-17T01:38:45;7.37;;;6.13;;
11498;SDS011;5806;48.748;9.278;2023-02-17T01:41:12;8.80;;;6.37;;
11498;SDS011;5806;48.748;9.278;2023-02-17T01:43:40;7.53;;;5.90;;
11498;SDS011;5806;48.748;9.278;2023-02-17T01:46:06;8.43;;;6.53;;
11498;SDS011;5806;48.748;9.278;2023-02-17T01:48:37;7.20;;;6.47;;
11498;SDS011;5806;48.748;9.278;2023-02-17T01:51:07;6.53;;;5.33;;
11498;SDS011;5806;48.748;9.278;2023-02-17T01:53:38;8.17;;;6.10;;
11498;SDS011;5806;48.748;9.278;2023-02-17T01:56:01;6.23;;;5.60;;
11498;SDS011;5806;48.748;9.278;2023-02-17T01:58:28;6.70;;;5.40;;
11498;SDS011;5806;48.748;9.278;2023-02-17T02:00:56;7.53;;;6.17;;
11498;SDS011;5806;48.748;9.278;2023-02-17T02:03:23;7.93;;;5.93;;
11498;SDS011;5806;48.748;9.278;2023-02-17T02:05:50;6.53;;;5.53;;
11498;SDS011;5806;48.748;9.278;2023-02-17T02:08:16;7.13;;;5.80;;
11498;SDS011;5806;48.748;9.278;2023-02-17T02:10:43;8.67;;;6.03;;
11498;SDS011;5806;48.748;9.278;2023-02-17T02:13:09;6.77;;;5.33;;
11498;SDS011;5806;48.748;9.278;2023-02-17T02:15:42;8.70;;;6.27;;
11498;SDS011;5806;48.748;9.278;2023-02-17T02:23:22;7.83;;;6.27;;
11498;SDS011;5806;48.748;9.278;2023-02-17T02:25:52;8.57;;;6.03;;
11498;SDS011;5806;48.748;9.278;2023-02-17T02:31:00;8.80;;;6.73;;
11498;SDS011;5806;48.748;9.278;2023-02-17T02:33:28;8.33;;;5.90;;
11498;SDS011;5806;48.748;9.278;2023-02-17T02:36:04;7.77;;;6.50;;
11498;SDS011;5806;48.748;9.278;2023-02-17T02:38:35;7.37;;;6.63;;
11498;SDS011;5806;48.748;9.278;2023-02-17T02:41:00;8.53;;;6.67;;
11498;SDS011;5806;48.748;9.278;2023-02-17T02:43:26;8.50;;;7.00;;
11498;SDS011;5806;48.748;9.278;2023-02-17T02:45:53;9.87;;;7.13;;
11498;SDS011;5806;48.748;9.278;2023-02-17T02:48:20;8.03;;;7.13;;
11498;SDS011;5806;48.748;9.278;2023-02-17T02:58:52;11.80;;;8.10;;
11498;SDS011;5806;48.748;9.278;2023-02-17T03:01:37;10.87;;;8.13;;
11498;SDS011;5806;48.748;9.278;2023-02-17T03:06:35;10.83;;;8.80;;
11498;SDS011;5806;48.748;9.278;2023-02-17T03:09:03;10.00;;;8.40;;
11498;SDS011;5806;48.748;9.278;2023-02-17T03:11:29;8.53;;;7.63;;
11498;SDS011;5806;48.748;9.278;2023-02-17T03:14:06;10.90;;;8.73;;
11498;SDS011;5806;48.748;9.278;2023-02-17T03:16:34;9.53;;;8.10;;
11498;SDS011;5806;48.748;9.278;2023-02-17T03:19:01;9.87;;;7.90;;
11498;SDS011;5806;48.748;9.278;2023-02-17T03:21:32;9.83;;;8.07;;
11498;SDS011;5806;48.748;9.278;2023-02-17T03:23:56;9.47;;;8.00;;
11498;SDS011;5806;48.748;9.278;2023-02-17T03:26:23;9.50;;;8.30;;
11498;SDS011;5806;48.748;9.278;2023-02-17T03:28:49;9.07;;;7.93;;
11498;SDS011;5806;48.748;9.278;2023-02-17T03:31:16;9.00;;;7.63;;
11498;SDS011;5806;48.748;9.278;2023-02-17T03:33:42;9.63;;;7.63;;
11498;SDS011;5806;48.748;9.278;2023-02-17T03:36:09;10.40;;;7.13;;
11498;SDS011;5806;48.748;9.278;2023-02-17T03:38:35;10.23;;;7.83;;
11498;SDS011;5806;48.748;9.278;2023-02-17T03:41:02;9.03;;;7.93;;
11498;SDS011;5806;48.748;9.278;2023-02-17T03:43:28;9.97;;;7.47;;
11498;SDS011;5806;48.748;9.278;2023-02-17T03:45:55;9.47;;;6.93;;
11498;SDS011;5806;48.748;9.278;2023-02-17T03:48:21;10.63;;;7.50;;
11498;SDS011;5806;48.748;9.278;2023-02-17T03:50:48;10.00;;;7.53;;
11498;SDS011;5806;48.748;9.278;2023-02-17T03:53:14;8.30;;;7.20;;
11498;SDS011;5806;48.748;9.278;2023-02-17T03:55:41;9.37;;;7.63;;
11498;SDS011;5806;48.748;9.278;2023-02-17T03:58:07;8.30;;;7.20;;
11498;SDS011;5806;48.748;9.278;2023-02-17T04:00:34;10.97;;;7.70;;
11498;SDS011;5806;48.748;9.278;2023-02-17T04:03:00;9.30;;;7.10;;
11498;SDS011;5806;48.748;9.278;2023-02-17T04:05:27;8.60;;;6.80;;
11498;SDS011;5806;48.748;9.278;2023-02-17T04:07:53;10.07;;;6.93;;
11498;SDS011;5806;48.748;9.278;2023-02-17T04:10:20;8.53;;;7.60;;
11498;SDS011;5806;48.748;9.278;2023-02-17T04:12:46;8.00;;;6.77;;
11498;SDS011;5806;48.748;9.278;2023-02-17T04:15:13;8.37;;;7.40;;
11498;SDS011;5806;48.748;9.278;2023-02-17T04:17:39;10.30;;;7.90;;
11498;SDS011;5806;48.748;9.278;2023-02-17T04:20:06;8.30;;;6.83;;
11498;SDS011;5806;48.748;9.278;2023-02-17T04:22:33;7.87;;;7.07;;
11498;SDS011;5806;48.748;9.278;2023-02-17T04:24:59;7.67;;;6.83;;
11498;SDS011;5806;48.748;9.278;2023-02-17T04:27:26;7.60;;;6.67;;
11498;SDS011;5806;48.748;9.278;2023-02-17T04:29:52;7.23;;;6.10;;
11498;SDS011;5806;48.748;9.278;2023-02-17T04:32:19;11.23;;;7.23;;
11498;SDS011;5806;48.748;9.278;2023-02-17T04:34:45;7.47;;;6.13;;
11498;SDS011;5806;48.748;9.278;2023-02-17T04:37:12;7.93;;;6.60;;
11498;SDS011;5806;48.748;9.278;2023-02-17T04:39:38;9.67;;;6.97;;
11498;SDS011;5806;48.748;9.278;2023-02-17T04:42:05;7.47;;;6.67;;
11498;SDS011;5806;48.748;9.278;2023-02-17T04:44:31;8.43;;;6.30;;
11498;SDS011;5806;48.748;9.278;2023-02-17T04:46:58;7.87;;;6.33;;
11498;SDS011;5806;48.748;9.278;2023-02-17T04:49:24;7.30;;;6.57;;
11498;SDS011;5806;48.748;9.278;2023-02-17T04:51:51;7.47;;;6.77;;
11498;SDS011;5806;48.748;9.278;2023-02-17T04:54:17;7.33;;;6.63;;
11498;SDS011;5806;48.748;9.278;2023-02-17T04:56:44;8.03;;;6.53;;
11498;SDS011;5806;48.748;9.278;2023-02-17T04:59:10;6.63;;;5.87;;
11498;SDS011;5806;48.748;9.278;2023-02-17T05:01:38;8.13;;;6.53;;
11498;SDS011;5806;48.748;9.278;2023-02-17T05:04:04;7.20;;;5.90;;
11498;SDS011;5806;48.748;9.278;2023-02-17T05:06:31;6.63;;;5.93;;
11498;SDS011;5806;48.748;9.278;2023-02-17T05:08:57;6.83;;;6.13;;
11498;SDS011;5806;48.748;9.278;2023-02-17T05:11:24;6.90;;;6.07;;
11498;SDS011;5806;48.748;9.278;2023-02-17T05:13:50;6.77;;;6.17;;
11498;SDS011;5806;48.748;9.278;2023-02-17T05:16:17;6.60;;;5.90;;
11498;SDS011;5806;48.748;9.278;2023-02-17T05:18:43;7.27;;;6.33;;
11498;SDS011;5806;48.748;9.278;2023-02-17T05:21:10;7.67;;;6.10;;
11498;SDS011;5806;48.748;9.278;2023-02-17T05:23:36;6.50;;;5.90;;
11498;SDS011;5806;48.748;9.278;2023-02-17T05:26:05;6.90;;;6.20;;
11498;SDS011;5806;48.748;9.278;2023-02-17T05:28:31;6.67;;;5.97;;
11498;SDS011;5806;48.748;9.278;2023-02-17T05:30:59;6.43;;;5.83;;
11498;SDS011;5806;48.748;9.278;2023-02-17T05:33:25;5.73;;;4.90;;
11498;SDS011;5806;48.748;9.278;2023-02-17T05:35:52;7.43;;;5.63;;
11498;SDS011;5806;48.748;9.278;2023-02-17T05:38:18;8.93;;;6.30;;
11498;SDS011;5806;48.748;9.278;2023-02-17T05:40:45;7.50;;;5.90;;
11498;SDS011;5806;48.748;9.278;2023-02-17T05:43:11;6.40;;;5.70;;
11498;SDS011;5806;48.748;9.278;2023-02-17T05:45:38;6.13;;;5.47;;
11498;SDS011;5806;48.748;9.278;2023-02-17T05:48:04;6.57;;;5.97;;
11498;SDS011;5806;48.748;9.278;2023-02-17T05:50:31;5.90;;;5.30;;
11498;SDS011;5806;48.748;9.278;2023-02-17T05:52:57;6.43;;;5.83;;
11498;SDS011;5806;48.748;9.278;2023-02-17T05:55:24;6.50;;;5.70;;
11498;SDS011;5806;48.748;9.278;2023-02-17T05:57:50;7.67;;;5.60;;
11498;SDS011;5806;48.748;9.278;2023-02-17T06:00:17;6.33;;;5.27;;
11498;SDS011;5806;48.748;9.278;2023-02-17T06:02:43;6.50;;;5.63;;
11498;SDS011;5806;48.748;9.278;2023-02-17T06:05:10;6.43;;;5.77;;
11498;SDS011;5806;48.748;9.278;2023-02-17T06:07:36;8.07;;;5.60;;
11498;SDS011;5806;48.748;9.278;2023-02-17T06:10:03;6.73;;;5.53;;
11498;SDS011;5806;48.748;9.278;2023-02-17T06:12:30;6.77;;;5.30;;
11498;SDS011;5806;48.748;9.278;2023-02-17T06:14:56;6.33;;;5.40;;
11498;SDS011;5806;48.748;9.278;2023-02-17T06:17:23;8.10;;;5.70;;
11498;SDS011;5806;48.748;9.278;2023-02-17T06:19:49;6.50;;;5.43;;
11498;SDS011;5806;48.748;9.278;2023-02-17T06:22:16;6.40;;;5.70;;
11498;SDS011;5806;48.748;9.278;2023-02-17T06:24:42;6.17;;;5.30;;
11498;SDS011;5806;48.748;9.278;2023-02-17T06:27:09;6.67;;;5.50;;
11498;SDS011;5806;48.748;9.278;2023-02-17T06:29:35;7.77;;;5.30;;
11498;SDS011;5806;48.748;9.278;2023-02-17T06:32:02;6.37;;;5.13;;
11498;SDS011;5806;48.748;9.278;2023-02-17T06:34:28;6.73;;;5.43;;
11498;SDS011;5806;48.748;9.278;2023-02-17T06:36:55;6.70;;;5.67;;
11498;SDS011;5806;48.748;9.278;2023-02-17T06:39:21;6.00;;;5.07;;
11498;SDS011;5806;48.748;9.278;2023-02-17T06:41:48;7.47;;;5.20;;
11498;SDS011;5806;48.748;9.278;2023-02-17T06:44:15;5.53;;;4.90;;
11498;SDS011;5806;48.748;9.278;2023-02-17T06:46:41;8.20;;;5.43;;
11498;SDS011;5806;48.748;9.278;2023-02-17T06:49:10;6.17;;;5.23;;
11498;SDS011;5806;48.748;9.278;2023-02-17T06:51:36;6.10;;;5.40;;
11498;SDS011;5806;48.748;9.278;2023-02-17T06:54:03;5.93;;;4.97;;
11498;SDS011;5806;48.748;9.278;2023-02-17T06:56:29;8.03;;;5.00;;
11498;SDS011;5806;48.748;9.278;2023-02-17T06:58:56;5.40;;;4.43;;
11498;SDS011;5806;48.748;9.278;2023-02-17T07:01:23;6.57;;;5.43;;
11498;SDS011;5806;48.748;9.278;2023-02-17T07:03:53;8.07;;;5.20;;
11498;SDS011;5806;48.748;9.278;2023-02-17T07:06:20;6.80;;;4.80;;
11498;SDS011;5806;48.748;9.278;2023-02-17T07:08:48;6.40;;;5.00;;
11498;SDS011;5806;48.748;9.278;2023-02-17T07:11:14;5.37;;;4.60;;
11498;SDS011;5806;48.748;9.278;2023-02-17T07:13:41;6.10;;;4.70;;
11498;SDS011;5806;48.748;9.278;2023-02-17T07:16:09;4.97;;;3.90;;
11498;SDS011;5806;48.748;9.278;2023-02-17T07:18:36;5.07;;;4.40;;
11498;SDS011;5806;48.748;9.278;2023-02-17T07:21:03;6.63;;;4.60;;
11498;SDS011;5806;48.748;9.278;2023-02-17T07:23:30;8.50;;;5.17;;
11498;SDS011;5806;48.748;9.278;2023-02-17T07:26:01;7.63;;;4.60;;
11498;SDS011;5806;48.748;9.278;2023-02-17T07:28:25;7.90;;;5.03;;
11498;SDS011;5806;48.748;9.278;2023-02-17T07:30:51;8.37;;;5.33;;
11498;SDS011;5806;48.748;9.278;2023-02-17T07:33:18;6.90;;;5.73;;
11498;SDS011;5806;48.748;9.278;2023-02-17T07:35:44;6.80;;;4.90;;
11498;SDS011;5806;48.748;9.278;2023-02-17T07:38:11;7.03;;;5.23;;
11498;SDS011;5806;48.748;9.278;2023-02-17T07:40:38;6.67;;;5.23;;
11498;SDS011;5806;48.748;9.278;2023-02-17T07:43:04;6.17;;;5.20;;
11498;SDS011;5806;48.748;9.278;2023-02-17T07:45:31;7.37;;;5.07;;
11498;SDS011;5806;48.748;9.278;2023-02-17T07:47:57;5.90;;;5.07;;
11498;SDS011;5806;48.748;9.278;2023-02-17T07:50:24;8.87;;;5.37;;
11498;SDS011;5806;48.748;9.278;2023-02-17T07:52:50;6.83;;;5.73;;
11498;SDS011;5806;48.748;9.278;2023-02-17T07:55:17;6.93;;;5.33;;
11498;SDS011;5806;48.748;9.278;2023-02-17T07:57:43;7.00;;;5.57;;
11498;SDS011;5806;48.748;9.278;2023-02-17T08:00:10;6.83;;;5.43;;
11498;SDS011;5806;48.748;9.278;2023-02-17T08:02:37;5.53;;;5.00;;
11498;SDS011;5806;48.748;9.278;2023-02-17T08:05:03;7.77;;;5.00;;
11498;SDS011;5806;48.748;9.278;2023-02-17T08:07:30;8.37;;;5.67;;
11498;SDS011;5806;48.748;9.278;2023-02-17T08:09:57;7.17;;;5.07;;
11498;SDS011;5806;48.748;9.278;2023-02-17T08:12:42;7.83;;;5.20;;
11498;SDS011;5806;48.748;9.278;2023-02-17T08:15:27;8.70;;;5.87;;
11498;SDS011;5806;48.748;9.278;2023-02-17T08:17:53;6.27;;;5.40;;
11498;SDS011;5806;48.748;9.278;2023-02-17T08:20:20;8.07;;;5.60;;
11498;SDS011;5806;48.748;9.278;2023-02-17T08:22:46;6.60;;;5.47;;
11498;SDS011;5806;48.748;9.278;2023-02-17T08:25:13;10.27;;;5.63;;
11498;SDS011;5806;48.748;9.278;2023-02-17T08:27:39;8.90;;;5.23;;
11498;SDS011;5806;48.748;9.278;2023-02-17T08:30:06;7.47;;;5.70;;
11498;SDS011;5806;48.748;9.278;2023-02-17T08:32:32;6.10;;;4.97;;
11498;SDS011;5806;48.748;9.278;2023-02-17T08:34:59;6.80;;;5.03;;
11498;SDS011;5806;48.748;9.278;2023-02-17T08:37:26;6.87;;;5.53;;
11498;SDS011;5806;48.748;9.278;2023-02-17T08:39:54;7.57;;;5.77;;
11498;SDS011;5806;48.748;9.278;2023-02-17T08:42:21;7.53;;;6.23;;
11498;SDS011;5806;48.748;9.278;2023-02-17T08:44:47;6.50;;;5.00;;
11498;SDS011;5806;48.748;9.278;2023-02-17T08:47:14;7.10;;;5.13;;
11498;SDS011;5806;48.748;9.278;2023-02-17T08:49:40;6.60;;;5.50;;
11498;SDS011;5806;48.748;9.278;2023-02-17T08:52:07;6.37;;;4.80;;
11498;SDS011;5806;48.748;9.278;2023-02-17T08:54:33;7.07;;;5.33;;
11498;SDS011;5806;48.748;9.278;2023-02-17T08:57:00;5.50;;;4.67;;
11498;SDS011;5806;48.748;9.278;2023-02-17T08:59:26;9.33;;;5.63;;
11498;SDS011;5806;48.748;9.278;2023-02-17T09:01:53;5.83;;;4.57;;
11498;SDS011;5806;48.748;9.278;2023-02-17T09:04:20;5.30;;;4.80;;
11498;SDS011;5806;48.748;9.278;2023-02-17T09:06:48;6.37;;;4.53;;
11498;SDS011;5806;48.748;9.278;2023-02-17T09:09:15;6.13;;;4.17;;
11498;SDS011;5806;48.748;9.278;2023-02-17T09:11:42;5.77;;;4.23;;
11498;SDS011;5806;48.748;9.278;2023-02-17T09:14:09;5.27;;;4.77;;
11498;SDS011;5806;48.748;9.278;2023-02-17T09:16:36;4.80;;;4.27;;
11498;SDS011;5806;48.748;9.278;2023-02-17T09:19:02;4.97;;;4.40;;
11498;SDS011;5806;48.748;9.278;2023-02-17T09:21:29;4.97;;;3.93;;
11498;SDS011;5806;48.748;9.278;2023-02-17T09:23:56;4.10;;;3.70;;
11498;SDS011;5806;48.748;9.278;2023-02-17T09:26:22;4.73;;;3.77;;
11498;SDS011;5806;48.748;9.278;2023-02-17T09:28:48;5.70;;;3.67;;
11498;SDS011;5806;48.748;9.278;2023-02-17T09:31:16;4.43;;;3.47;;
11498;SDS011;5806;48.748;9.278;2023-02-17T09:33:44;4.67;;;3.60;;
11498;SDS011;5806;48.748;9.278;2023-02-17T09:36:13;4.27;;;3.43;;
11498;SDS011;5806;48.748;9.278;2023-02-17T09:38:40;4.20;;;3.27;;
11498;SDS011;5806;48.748;9.278;2023-02-17T09:41:14;4.57;;;2.90;;
11498;SDS011;5806;48.748;9.278;2023-02-17T09:43:42;3.90;;;2.87;;
11498;SDS011;5806;48.748;9.278;2023-02-17T09:46:20;4.97;;;2.93;;
11498;SDS011;5806;48.748;9.278;2023-02-17T09:48:42;4.60;;;2.90;;
11498;SDS011;5806;48.748;9.278;2023-02-17T09:51:13;3.67;;;3.03;;
11498;SDS011;5806;48.748;9.278;2023-02-17T09:56:09;3.50;;;2.63;;
11498;SDS011;5806;48.748;9.278;2023-02-17T09:58:40;5.70;;;3.00;;
11498;SDS011;5806;48.748;9.278;2023-02-17T10:01:12;4.63;;;3.27;;
11498;SDS011;5806;48.748;9.278;2023-02-17T10:03:39;4.27;;;2.90;;
11498;SDS011;5806;48.748;9.278;2023-02-17T10:06:25;4.23;;;2.90;;
11498;SDS011;5806;48.748;9.278;2023-02-17T10:08:57;3.20;;;2.70;;
11498;SDS011;5806;48.748;9.278;2023-02-17T10:11:33;3.77;;;2.70;;
11498;SDS011;5806;48.748;9.278;2023-02-17T10:14:02;3.10;;;2.70;;
11498;SDS011;5806;48.748;9.278;2023-02-17T10:16:34;6.23;;;3.07;;
11498;SDS011;5806;48.748;9.278;2023-02-17T10:19:00;4.33;;;2.77;;
11498;SDS011;5806;48.748;9.278;2023-02-17T10:21:29;4.40;;;2.70;;
11498;SDS011;5806;48.748;9.278;2023-02-17T10:23:55;3.30;;;2.63;;
11498;SDS011;5806;48.748;9.278;2023-02-17T10:26:29;2.73;;;2.53;;
11498;SDS011;5806;48.748;9.278;2023-02-17T10:29:13;4.37;;;2.40;;
11498;SDS011;5806;48.748;9.278;2023-02-17T10:31:47;28.30;;;6.00;;
11498;SDS011;5806;48.748;9.278;2023-02-17T10:34:27;4.17;;;2.50;;
11498;SDS011;5806;48.748;9.278;2023-02-17T10:37:02;3.10;;;2.43;;
11498;SDS011;5806;48.748;9.278;2023-02-17T10:39:43;3.63;;;2.70;;
11498;SDS011;5806;48.748;9.278;2023-02-17T10:42:15;3.67;;;2.23;;
11498;SDS011;5806;48.748;9.278;2023-02-17T10:44:40;2.83;;;2.20;;
11498;SDS011;5806;48.748;9.278;2023-02-17T10:47:07;3.27;;;2.30;;
11498;SDS011;5806;48.748;9.278;2023-02-17T10:49:35;4.17;;;2.20;;
11498;SDS011;5806;48.748;9.278;2023-02-17T10:52:10;3.87;;;2.23;;
11498;SDS011;5806;48.748;9.278;2023-02-17T10:54:35;3.27;;;2.20;;
11498;SDS011;5806;48.748;9.278;2023-02-17T10:57:02;3.10;;;2.03;;
11498;SDS011;5806;48.748;9.278;2023-02-17T10:59:32;4.07;;;2.00;;
11498;SDS011;5806;48.748;9.278;2023-02-17T11:02:24;2.10;;;1.70;;
11498;SDS011;5806;48.748;9.278;2023-02-17T11:04:37;3.37;;;1.97;;
11498;SDS011;5806;48.748;9.278;2023-02-17T11:06:56;7.40;;;2.20;;
11498;SDS011;5806;48.748;9.278;2023-02-17T11:09:28;5.20;;;2.13;;
11498;SDS011;5806;48.748;9.278;2023-02-17T11:12:01;3.17;;;2.20;;
11498;SDS011;5806;48.748;9.278;2023-02-17T11:14:26;4.40;;;2.03;;
11498;SDS011;5806;48.748;9.278;2023-02-17T11:16:55;4.73;;;2.07;;
11498;SDS011;5806;48.748;9.278;2023-02-17T11:19:33;4.73;;;2.13;;
11498;SDS011;5806;48.748;9.278;2023-02-17T11:21:52;2.17;;;1.60;;
11498;SDS011;5806;48.748;9.278;2023-02-17T11:24:19;2.33;;;2.00;;
11498;SDS011;5806;48.748;9.278;2023-02-17T11:27:08;3.97;;;1.97;;
11498;SDS011;5806;48.748;9.278;2023-02-17T11:29:17;1.97;;;1.77;;
11498;SDS011;5806;48.748;9.278;2023-02-17T11:31:59;2.13;;;1.73;;
11498;SDS011;5806;48.748;9.278;2023-02-17T11:34:26;2.00;;;1.80;;
11498;SDS011;5806;48.748;9.278;2023-02-17T11:39:27;6.93;;;1.50;;
11498;SDS011;5806;48.748;9.278;2023-02-17T11:41:54;4.70;;;2.20;;
11498;SDS011;5806;48.748;9.278;2023-02-17T11:44:23;4.53;;;1.93;;
11498;SDS011;5806;48.748;9.278;2023-02-17T11:47:02;3.33;;;1.93;;
11498;SDS011;5806;48.748;9.278;2023-02-17T11:55:33;3.23;;;1.83;;
11498;SDS011;5806;48.748;9.278;2023-02-17T11:57:32;2.63;;;1.97;;
11498;SDS011;5806;48.748;9.278;2023-02-17T12:00:17;5.57;;;1.53;;
11498;SDS011;5806;48.748;9.278;2023-02-17T12:08:43;5.40;;;1.80;;
11498;SDS011;5806;48.748;9.278;2023-02-17T12:11:17;4.30;;;1.90;;
11498;SDS011;5806;48.748;9.278;2023-02-17T12:21:37;6.37;;;2.10;;
11498;SDS011;5806;48.748;9.278;2023-02-17T12:29:03;5.30;;;1.67;;
11498;SDS011;5806;48.748;9.278;2023-02-17T12:34:00;6.70;;;1.90;;
11498;SDS011;5806;48.748;9.278;2023-02-17T12:36:33;9.47;;;1.80;;
11498;SDS011;5806;48.748;9.278;2023-02-17T12:39:01;7.00;;;1.67;;
11498;SDS011;5806;48.748;9.278;2023-02-17T12:41:32;3.23;;;1.47;;
11498;SDS011;5806;48.748;9.278;2023-02-17T12:44:01;6.20;;;1.93;;
11498;SDS011;5806;48.748;9.278;2023-02-17T12:46:37;7.13;;;2.00;;
11498;SDS011;5806;48.748;9.278;2023-02-17T12:49:15;7.23;;;2.10;;
11498;SDS011;5806;48.748;9.278;2023-02-17T12:51:46;5.93;;;2.23;;
11498;SDS011;5806;48.748;9.278;2023-02-17T12:54:15;7.83;;;1.83;;
11498;SDS011;5806;48.748;9.278;2023-02-17T12:56:47;6.23;;;1.90;;
11498;SDS011;5806;48.748;9.278;2023-02-17T12:59:50;5.03;;;1.37;;
11498;SDS011;5806;48.748;9.278;2023-02-17T13:04:34;5.93;;;1.90;;
11498;SDS011;5806;48.748;9.278;2023-02-17T13:07:09;14.80;;;2.73;;
11498;SDS011;5806;48.748;9.278;2023-02-17T13:09:35;13.63;;;1.97;;
11498;SDS011;5806;48.748;9.278;2023-02-17T13:12:07;7.07;;;1.90;;
11498;SDS011;5806;48.748;9.278;2023-02-17T13:14:38;12.37;;;2.30;;
11498;SDS011;5806;48.748;9.278;2023-02-17T13:17:05;10.43;;;2.40;;
11498;SDS011;5806;48.748;9.278;2023-02-17T13:19:32;13.73;;;2.27;;
11498;SDS011;5806;48.748;9.278;2023-02-17T13:21:59;18.03;;;3.13;;
11498;SDS011;5806;48.748;9.278;2023-02-17T13:24:37;8.23;;;1.83;;
11498;SDS011;5806;48.748;9.278;2023-02-17T13:29:38;16.77;;;2.50;;
11498;SDS011;5806;48.748;9.278;2023-02-17T13:32:06;10.83;;;2.20;;
11498;SDS011;5806;48.748;9.278;2023-02-17T13:34:37;8.83;;;2.20;;
11498;SDS011;5806;48.748;9.278;2023-02-17T13:37:23;8.70;;;1.67;;
11498;SDS011;5806;48.748;9.278;2023-02-17T13:39:52;17.07;;;3.40;;
11498;SDS011;5806;48.748;9.278;2023-02-17T13:42:39;10.33;;;2.40;;
11498;SDS011;5806;48.748;9.278;2023-02-17T13:44:50;11.53;;;2.60;;
11498;SDS011;5806;48.748;9.278;2023-02-17T13:47:26;9.07;;;2.43;;
11498;SDS011;5806;48.748;9.278;2023-02-17T13:49:56;10.10;;;2.60;;
11498;SDS011;5806;48.748;9.278;2023-02-17T13:52:22;9.33;;;2.90;;
11498;SDS011;5806;48.748;9.278;2023-02-17T13:54:56;9.40;;;2.00;;
11498;SDS011;5806;48.748;9.278;2023-02-17T13:57:29;15.17;;;2.97;;
11498;SDS011;5806;48.748;9.278;2023-02-17T13:59:52;7.40;;;2.40;;
11498;SDS011;5806;48.748;9.278;2023-02-17T14:02:19;6.50;;;2.27;;
11498;SDS011;5806;48.748;9.278;2023-02-17T14:04:47;8.50;;;2.17;;
11498;SDS011;5806;48.748;9.278;2023-02-17T14:07:13;9.37;;;2.33;;
11498;SDS011;5806;48.748;9.278;2023-02-17T14:09:40;10.53;;;2.33;;
11498;SDS011;5806;48.748;9.278;2023-02-17T14:12:08;7.03;;;2.50;;
11498;SDS011;5806;48.748;9.278;2023-02-17T14:14:35;6.80;;;2.33;;
11498;SDS011;5806;48.748;9.278;2023-02-17T14:17:11;10.30;;;2.80;;
11498;SDS011;5806;48.748;9.278;2023-02-17T14:19:40;12.07;;;2.60;;
11498;SDS011;5806;48.748;9.278;2023-02-17T14:22:02;14.53;;;3.13;;
11498;SDS011;5806;48.748;9.278;2023-02-17T14:24:33;9.40;;;3.17;;
11498;SDS011;5806;48.748;9.278;2023-02-17T14:27:04;11.77;;;2.40;;
11498;SDS011;5806;48.748;9.278;2023-02-17T14:29:41;6.10;;;2.43;;
11498;SDS011;5806;48.748;9.278;2023-02-17T14:32:05;6.93;;;2.40;;
11498;SDS011;5806;48.748;9.278;2023-02-17T14:34:33;6.80;;;2.53;;
11498;SDS011;5806;48.748;9.278;2023-02-17T14:37:07;6.07;;;2.97;;
11498;SDS011;5806;48.748;9.278;2023-02-17T14:39:33;10.27;;;2.20;;
11498;SDS011;5806;48.748;9.278;2023-02-17T14:42:00;5.73;;;2.10;;
11498;SDS011;5806;48.748;9.278;2023-02-17T14:44:26;4.53;;;1.60;;
11498;SDS011;5806;48.748;9.278;2023-02-17T14:46:53;3.10;;;1.60;;
11498;SDS011;5806;48.748;9.278;2023-02-17T14:49:19;5.17;;;2.13;;
11498;SDS011;5806;48.748;9.278;2023-02-17T14:51:46;5.73;;;1.67;;
11498;SDS011;5806;48.748;9.278;2023-02-17T14:54:13;4.07;;;2.00;;
11498;SDS011;5806;48.748;9.278;2023-02-17T14:56:42;4.60;;;2.00;;
11498;SDS011;5806;48.748;9.278;2023-02-17T14:59:08;3.53;;;1.90;;
11498;SDS011;5806;48.748;9.278;2023-02-17T15:01:35;4.60;;;2.57;;
11498;SDS011;5806;48.748;9.278;2023-02-17T15:04:01;5.27;;;2.60;;
11498;SDS011;5806;48.748;9.278;2023-02-17T15:06:44;4.30;;;1.97;;
11498;SDS011;5806;48.748;9.278;2023-02-17T15:09:12;5.13;;;2.40;;
11498;SDS011;5806;48.748;9.278;2023-02-17T15:11:40;4.00;;;2.37;;
11498;SDS011;5806;48.748;9.278;2023-02-17T15:14:14;4.93;;;2.23;;
11498;SDS011;5806;48.748;9.278;2023-02-17T15:16:37;9.13;;;2.00;;
11498;SDS011;5806;48.748;9.278;2023-02-17T15:19:03;4.83;;;2.33;;
11498;SDS011;5806;48.748;9.278;2023-02-17T15:21:30;3.80;;;2.07;;
11498;SDS011;5806;48.748;9.278;2023-02-17T15:23:58;3.80;;;2.17;;
11498;SDS011;5806;48.748;9.278;2023-02-17T15:26:25;5.73;;;2.63;;
11498;SDS011;5806;48.748;9.278;2023-02-17T15:28:52;4.53;;;2.50;;
11498;SDS011;5806;48.748;9.278;2023-02-17T15:31:20;3.93;;;2.70;;
11498;SDS011;5806;48.748;9.278;2023-02-17T15:33:56;4.70;;;2.90;;
11498;SDS011;5806;48.748;9.278;2023-02-17T15:36:23;4.53;;;3.13;;
11498;SDS011;5806;48.748;9.278;2023-02-17T15:38:50;5.00;;;3.07;;
11498;SDS011;5806;48.748;9.278;2023-02-17T15:41:21;5.23;;;3.20;;
11498;SDS011;5806;48.748;9.278;2023-02-17T15:43:48;8.00;;;3.23;;
11498;SDS011;5806;48.748;9.278;2023-02-17T15:46:16;4.27;;;2.20;;
11498;SDS011;5806;48.748;9.278;2023-02-17T15:48:44;3.20;;;2.17;;
11498;SDS011;5806;48.748;9.278;2023-02-17T15:51:14;3.10;;;1.70;;
11498;SDS011;5806;48.748;9.278;2023-02-17T15:53:42;3.63;;;1.73;;
11498;SDS011;5806;48.748;9.278;2023-02-17T15:56:13;2.13;;;1.40;;
11498;SDS011;5806;48.748;9.278;2023-02-17T15:58:40;3.67;;;1.80;;